createdAt,value
2022-12-22T00:00:26.180Z,6.90
2022-12-22T00:03:12.725Z,7.47
2022-12-22T00:06:04.013Z,7.13
2022-12-22T00:08:50.244Z,7.38
2022-12-22T00:11:42.395Z,6.65
2022-12-22T00:14:31.167Z,7.22
2022-12-22T00:17:20.813Z,7.68
2022-12-22T00:20:15.055Z,6.70
2022-12-22T00:23:09.761Z,6.90
2022-12-22T00:25:56.073Z,7.63
2022-12-22T00:28:45.131Z,7.10
2022-12-22T00:31:34.600Z,7.20
2022-12-22T00:34:25.684Z,7.30
2022-12-22T00:37:18.543Z,7.00
2022-12-22T00:40:04.611Z,6.90
2022-12-22T00:42:54.700Z,6.90
2022-12-22T00:45:41.393Z,6.63
2022-12-22T00:48:41.856Z,7.15
2022-12-22T00:51:35.240Z,6.95
2022-12-22T00:54:28.353Z,6.83
2022-12-22T00:57:19.503Z,6.68
2022-12-22T01:00:15.333Z,6.80
2022-12-22T01:03:01.510Z,6.63
2022-12-22T01:05:47.327Z,7.05
2022-12-22T01:08:33.359Z,6.60
2022-12-22T01:11:26.295Z,6.50
2022-12-22T01:14:12.318Z,6.50
2022-12-22T01:17:01.899Z,6.88
2022-12-22T01:19:47.953Z,6.95
2022-12-22T01:22:40.213Z,7.03
2022-12-22T01:25:33.330Z,7.68
2022-12-22T01:28:21.533Z,6.70
2022-12-22T01:31:10.440Z,6.55
2022-12-22T01:34:02.614Z,6.70
2022-12-22T01:36:49.173Z,7.03
2022-12-22T01:39:35.527Z,7.10
2022-12-22T01:42:21.733Z,7.07
2022-12-22T01:45:07.638Z,6.95
2022-12-22T01:47:56.674Z,7.28
2022-12-22T01:50:50.965Z,6.88
2022-12-22T01:56:34.737Z,6.65
2022-12-22T01:59:25.406Z,6.65
2022-12-22T02:02:12.979Z,7.07
2022-12-22T02:05:05.859Z,6.13
2022-12-22T02:08:31.064Z,6.45
2022-12-22T02:14:52.396Z,7.00
2022-12-22T02:17:57.541Z,7.18
2022-12-22T02:21:20.616Z,6.82
2022-12-22T02:24:25.817Z,7.13
2022-12-22T02:27:15.626Z,6.97
2022-12-22T02:30:17.591Z,6.90
2022-12-22T02:33:09.802Z,6.57
2022-12-22T02:36:10.988Z,6.45
2022-12-22T02:39:27.890Z,6.85
2022-12-22T02:43:15.942Z,6.95
2022-12-22T02:46:27.896Z,6.82
2022-12-22T02:49:33.287Z,6.90
2022-12-22T02:52:29.235Z,7.38
2022-12-22T02:55:15.749Z,7.20
2022-12-22T02:58:01.667Z,6.65
2022-12-22T03:00:51.386Z,6.30
2022-12-22T03:03:37.636Z,6.82
2022-12-22T03:06:30.262Z,7.28
2022-12-22T03:09:22.457Z,6.32
2022-12-22T03:12:09.217Z,7.05
2022-12-22T03:14:58.011Z,6.97
2022-12-22T03:17:49.311Z,7.13
2022-12-22T03:20:35.139Z,6.72
2022-12-22T03:23:27.294Z,6.72
2022-12-22T03:26:03.436Z,7.18
2022-12-22T03:28:37.002Z,7.45
2022-12-22T03:31:14.222Z,7.28
2022-12-22T03:33:46.855Z,6.78
2022-12-22T03:36:18.023Z,6.88
2022-12-22T03:38:51.095Z,7.30
2022-12-22T03:41:37.266Z,6.97
2022-12-22T03:44:25.408Z,7.03
2022-12-22T03:46:57.870Z,6.55
2022-12-22T03:49:26.292Z,7.15
2022-12-22T03:51:59.304Z,7.15
2022-12-22T03:57:03.410Z,6.43
2022-12-22T03:59:33.804Z,6.35
2022-12-22T04:02:06.767Z,6.63
2022-12-22T04:04:35.748Z,7.20
2022-12-22T04:07:07.309Z,6.68
2022-12-22T04:10:03.437Z,7.40
2022-12-22T04:12:52.272Z,7.40
2022-12-22T04:15:25.268Z,7.03
2022-12-22T04:17:56.254Z,6.30
2022-12-22T04:20:29.093Z,7.45
2022-12-22T04:23:00.102Z,7.00
2022-12-22T04:25:30.456Z,7.22
2022-12-22T04:28:06.290Z,7.07
2022-12-22T04:30:36.378Z,7.45
2022-12-22T04:33:09.620Z,7.10
2022-12-22T04:35:42.452Z,7.07
2022-12-22T04:38:18.804Z,6.80
2022-12-22T04:40:51.538Z,6.57
2022-12-22T04:43:24.569Z,7.22
2022-12-22T04:45:56.598Z,6.93
2022-12-22T04:48:26.004Z,6.75
2022-12-22T04:51:01.995Z,7.32
2022-12-22T04:53:32.941Z,7.05
2022-12-22T04:56:09.946Z,7.32
2022-12-22T04:58:40.955Z,6.78
2022-12-22T05:01:16.371Z,7.32
2022-12-22T05:03:47.010Z,6.55
2022-12-22T05:06:15.193Z,6.55
2022-12-22T05:08:45.798Z,6.72
2022-12-22T05:11:18.986Z,7.35
2022-12-22T05:13:49.790Z,6.50
2022-12-22T05:16:24.831Z,6.93
2022-12-22T05:18:55.377Z,7.32
2022-12-22T05:21:28.995Z,7.40
2022-12-22T05:23:57.326Z,6.85
2022-12-22T05:26:27.900Z,6.35
2022-12-22T05:28:58.343Z,7.50
2022-12-22T05:31:29.272Z,7.75
2022-12-22T05:33:57.017Z,6.95
2022-12-22T05:36:27.490Z,6.78
2022-12-22T05:39:00.380Z,7.32
2022-12-22T05:41:34.334Z,7.03
2022-12-22T05:44:10.544Z,6.90
2022-12-22T05:46:43.226Z,6.88
2022-12-22T05:49:13.789Z,6.78
2022-12-22T05:51:47.452Z,6.82
2022-12-22T05:54:18.088Z,6.80
2022-12-22T05:56:46.041Z,7.25
2022-12-22T05:59:22.368Z,6.85
2022-12-22T06:01:50.568Z,6.93
2022-12-22T06:04:20.638Z,7.00
2022-12-22T06:06:51.838Z,7.00
2022-12-22T06:09:27.870Z,7.25
2022-12-22T06:11:55.522Z,6.93
2022-12-22T06:14:28.760Z,7.18
2022-12-22T06:19:30.441Z,6.75
2022-12-22T06:22:03.430Z,6.80
2022-12-22T06:24:42.409Z,7.03
2022-12-22T06:27:12.489Z,6.90
2022-12-22T06:29:45.605Z,6.70
2022-12-22T06:32:26.542Z,7.10
2022-12-22T06:35:01.374Z,6.72
2022-12-22T06:37:45.855Z,6.50
2022-12-22T06:40:22.406Z,7.25
2022-12-22T06:43:10.624Z,6.65
2022-12-22T06:45:45.873Z,7.05
2022-12-22T06:48:24.312Z,6.72
2022-12-22T06:51:03.888Z,6.45
2022-12-22T06:53:37.166Z,6.95
2022-12-22T06:56:10.950Z,6.95
2022-12-22T07:01:13.447Z,6.68
2022-12-22T07:03:45.009Z,6.80
2022-12-22T07:06:18.556Z,6.40
2022-12-22T07:08:47.381Z,6.32
2022-12-22T07:11:18.278Z,7.25
2022-12-22T07:13:48.857Z,7.20
2022-12-22T07:16:16.590Z,6.35
2022-12-22T07:18:47.271Z,6.38
2022-12-22T07:21:18.814Z,6.68
2022-12-22T07:23:46.446Z,6.10
2022-12-22T07:26:19.580Z,6.60
2022-12-22T07:28:48.718Z,6.75
2022-12-22T07:31:24.475Z,6.45
2022-12-22T07:33:57.841Z,6.38
2022-12-22T07:36:34.495Z,6.72
2022-12-22T07:39:13.866Z,6.28
2022-12-22T07:42:12.298Z,6.15
2022-12-22T07:44:45.363Z,6.80
2022-12-22T07:47:21.562Z,6.90
2022-12-22T07:50:14.863Z,7.00
2022-12-22T07:53:07.129Z,6.57
2022-12-22T07:55:37.687Z,6.25
2022-12-22T07:58:08.670Z,6.78
2022-12-22T08:00:40.234Z,6.28
2022-12-22T08:03:16.963Z,6.53
2022-12-22T08:05:58.613Z,6.55
2022-12-22T08:08:32.358Z,6.70
2022-12-22T08:11:10.505Z,6.72
2022-12-22T08:13:44.556Z,6.15
2022-12-22T08:16:22.389Z,6.70
2022-12-22T08:18:54.159Z,6.70
2022-12-22T08:21:27.200Z,6.05
2022-12-22T08:23:57.439Z,5.88
2022-12-22T08:26:44.246Z,7.30
2022-12-22T08:29:34.768Z,6.30
2022-12-22T08:32:13.773Z,6.30
2022-12-22T08:34:49.445Z,6.43
2022-12-22T08:37:27.577Z,6.60
2022-12-22T08:40:06.497Z,6.97
2022-12-22T08:42:38.513Z,6.35
2022-12-22T08:45:11.555Z,6.15
2022-12-22T08:47:44.804Z,6.25
2022-12-22T08:50:14.282Z,6.03
2022-12-22T08:52:45.181Z,5.93
2022-12-22T08:55:13.177Z,5.97
2022-12-22T08:57:52.281Z,5.90
2022-12-22T09:00:26.888Z,6.13
2022-12-22T09:02:55.855Z,6.15
2022-12-22T09:05:24.050Z,5.88
2022-12-22T09:08:01.110Z,6.22
2022-12-22T09:10:31.786Z,6.10
2022-12-22T09:12:59.831Z,6.53
2022-12-22T09:15:34.261Z,6.57
2022-12-22T09:18:02.324Z,5.50
2022-12-22T09:20:34.413Z,5.97
2022-12-22T09:23:08.764Z,5.82
2022-12-22T09:25:37.528Z,6.00
2022-12-22T09:28:12.234Z,6.47
2022-12-22T09:30:45.619Z,6.30
2022-12-22T09:33:25.088Z,6.00
2022-12-22T09:35:59.803Z,5.65
2022-12-22T09:38:38.383Z,6.65
2022-12-22T09:41:32.289Z,5.88
2022-12-22T09:44:23.941Z,5.85
2022-12-22T09:47:01.206Z,6.43
2022-12-22T09:49:34.803Z,6.00
2022-12-22T09:54:39.736Z,6.22
2022-12-22T09:57:14.774Z,6.53
2022-12-22T09:59:47.900Z,6.45
2022-12-22T10:02:31.760Z,6.20
2022-12-22T10:05:42.380Z,6.93
2022-12-22T10:08:21.906Z,7.00
2022-12-22T10:10:57.203Z,6.35
2022-12-22T10:13:36.911Z,5.82
2022-12-22T10:16:29.235Z,7.38
2022-12-22T10:19:16.648Z,6.75
2022-12-22T10:21:49.182Z,6.63
2022-12-22T10:24:30.756Z,6.63
2022-12-22T10:27:05.024Z,6.38
2022-12-22T10:29:39.929Z,6.78
2022-12-22T10:32:25.850Z,6.78
2022-12-22T10:35:05.381Z,6.55
2022-12-22T10:37:43.562Z,6.68
2022-12-22T10:40:24.604Z,6.35
2022-12-22T10:43:00.154Z,6.20
2022-12-22T10:45:30.722Z,6.43
2022-12-22T10:48:10.920Z,6.95
2022-12-22T10:50:49.803Z,6.95
2022-12-22T10:53:23.944Z,6.68
2022-12-22T10:56:09.320Z,8.95
2022-12-22T10:59:24.286Z,7.93
2022-12-22T11:01:55.288Z,7.85
2022-12-22T11:04:28.297Z,7.93
2022-12-22T11:07:00.103Z,6.97
2022-12-22T11:09:35.034Z,7.35
2022-12-22T11:12:29.660Z,7.28
2022-12-22T11:15:24.648Z,7.43
2022-12-22T11:18:21.756Z,6.90
2022-12-22T11:21:23.969Z,7.28
2022-12-22T11:24:36.588Z,7.45
2022-12-22T11:27:28.824Z,6.82
2022-12-22T11:30:23.251Z,7.28
2022-12-22T11:33:23.119Z,6.90
2022-12-22T11:36:09.862Z,7.45
2022-12-22T11:38:49.721Z,7.57
2022-12-22T11:42:01.829Z,6.63
2022-12-22T11:45:29.349Z,7.22
2022-12-22T11:48:13.226Z,7.40
2022-12-22T11:53:41.870Z,7.43
2022-12-22T11:56:21.238Z,7.25
2022-12-22T11:59:14.921Z,7.22
2022-12-22T12:02:13.265Z,7.20
2022-12-22T12:05:19.430Z,6.85
2022-12-22T12:08:08.956Z,6.72
2022-12-22T12:10:52.338Z,7.20
2022-12-22T12:13:37.525Z,7.40
2022-12-22T12:16:48.127Z,7.43
2022-12-22T12:19:49.683Z,6.63
2022-12-22T12:22:39.090Z,7.30
2022-12-22T12:25:25.637Z,7.30
2022-12-22T12:28:25.208Z,7.03
2022-12-22T12:30:57.291Z,6.97
2022-12-22T12:33:36.586Z,7.75
2022-12-22T12:36:25.055Z,7.13
2022-12-22T12:39:24.130Z,6.93
2022-12-22T12:42:13.057Z,6.82
2022-12-22T12:44:43.957Z,7.20
2022-12-22T12:47:49.279Z,6.82
2022-12-22T12:50:34.713Z,6.97
2022-12-22T12:53:11.603Z,7.25
2022-12-22T12:55:44.874Z,6.72
2022-12-22T12:58:32.698Z,6.90
2022-12-22T13:01:00.390Z,7.15
2022-12-22T13:06:51.527Z,7.10
2022-12-22T13:12:39.716Z,7.28
2022-12-22T13:15:30.237Z,6.60
2022-12-22T13:18:04.274Z,6.85
2022-12-22T13:20:37.588Z,7.18
2022-12-22T13:23:18.153Z,7.45
2022-12-22T13:26:00.432Z,7.25
2022-12-22T13:28:35.868Z,6.72
2022-12-22T13:31:29.071Z,7.18
2022-12-22T13:34:08.597Z,7.18
2022-12-22T13:36:40.056Z,6.43
2022-12-22T13:39:15.930Z,7.13
2022-12-22T13:41:51.749Z,6.80
2022-12-22T13:44:34.231Z,6.82
2022-12-22T13:47:06.197Z,7.20
2022-12-22T13:50:07.271Z,6.65
2022-12-22T13:52:37.080Z,6.32
2022-12-22T13:55:16.248Z,6.57
2022-12-22T13:57:54.786Z,7.43
2022-12-22T14:00:29.814Z,7.45
2022-12-22T14:03:08.852Z,7.10
2022-12-22T14:05:42.935Z,7.15
2022-12-22T14:08:16.630Z,7.13
2022-12-22T14:10:45.459Z,7.15
2022-12-22T14:13:28.476Z,7.30
2022-12-22T14:16:05.232Z,7.03
2022-12-22T14:18:38.491Z,7.57
2022-12-22T14:21:10.934Z,7.30
2022-12-22T14:23:48.992Z,7.15
2022-12-22T14:26:29.210Z,7.68
2022-12-22T14:29:03.047Z,7.63
2022-12-22T14:31:33.855Z,7.00
2022-12-22T14:34:24.148Z,7.18
2022-12-22T14:37:02.240Z,7.70
2022-12-22T14:39:34.830Z,6.20
2022-12-22T14:42:13.422Z,7.20
2022-12-22T14:44:51.138Z,7.38
2022-12-22T14:47:37.269Z,7.10
2022-12-22T14:50:30.487Z,7.45
2022-12-22T14:53:07.857Z,6.93
2022-12-22T14:55:51.501Z,7.57
2022-12-22T14:58:33.361Z,6.88
2022-12-22T15:01:19.733Z,7.53
2022-12-22T15:04:10.571Z,6.95
2022-12-22T15:06:45.915Z,7.53
2022-12-22T15:09:33.599Z,6.90
2022-12-22T15:12:19.464Z,7.17
2022-12-22T15:14:53.964Z,7.55
2022-12-22T15:17:29.148Z,7.10
2022-12-22T15:20:05.776Z,7.30
2022-12-22T15:22:33.829Z,7.25
2022-12-22T15:25:15.603Z,7.78
2022-12-22T15:27:46.678Z,7.13
2022-12-22T15:30:28.973Z,7.25
2022-12-22T15:33:12.985Z,7.57
2022-12-22T15:35:47.375Z,7.40
2022-12-22T15:38:26.651Z,7.40
2022-12-22T15:40:58.158Z,7.05
2022-12-22T15:43:56.463Z,7.43
2022-12-22T15:46:25.038Z,7.40
2022-12-22T15:49:01.806Z,8.85
2022-12-22T15:51:36.417Z,8.20
2022-12-22T15:54:13.722Z,8.02
2022-12-22T15:56:52.178Z,7.85
2022-12-22T15:59:28.328Z,8.27
2022-12-22T16:02:02.471Z,7.18
2022-12-22T16:04:30.483Z,7.53
2022-12-22T16:07:00.662Z,7.88
2022-12-22T16:09:40.754Z,7.97
2022-12-22T16:12:22.524Z,7.47
2022-12-22T16:14:55.797Z,7.95
2022-12-22T16:17:34.469Z,8.20
2022-12-22T16:20:09.356Z,7.80
2022-12-22T16:22:40.201Z,7.47
2022-12-22T16:25:16.194Z,7.75
2022-12-22T16:27:54.463Z,7.35
2022-12-22T16:30:33.601Z,7.88
2022-12-22T16:33:07.063Z,8.23
2022-12-22T16:35:43.629Z,7.95
2022-12-22T16:38:19.264Z,8.35
2022-12-22T16:40:50.582Z,7.60
2022-12-22T16:46:24.248Z,8.23
2022-12-22T16:49:00.033Z,7.78
2022-12-22T16:51:34.314Z,7.82
2022-12-22T16:54:07.653Z,7.82
2022-12-22T16:56:38.084Z,7.75
2022-12-22T16:59:08.673Z,7.82
2022-12-22T17:01:52.618Z,7.95
2022-12-22T17:04:32.750Z,8.05
2022-12-22T17:07:06.905Z,8.32
2022-12-22T17:09:52.923Z,8.27
2022-12-22T17:12:29.365Z,8.13
2022-12-22T17:14:59.413Z,7.20
2022-12-22T17:17:41.758Z,8.25
2022-12-22T17:20:22.193Z,7.60
2022-12-22T17:23:02.396Z,8.20
2022-12-22T17:25:31.321Z,8.38
2022-12-22T17:28:02.460Z,8.43
2022-12-22T17:30:37.445Z,7.97
2022-12-22T17:33:08.262Z,7.63
2022-12-22T17:35:37.373Z,7.90
2022-12-22T17:38:09.000Z,8.40
2022-12-22T17:40:40.171Z,7.43
2022-12-22T17:43:18.871Z,7.70
2022-12-22T17:45:50.948Z,8.10
2022-12-22T17:48:20.957Z,8.30
2022-12-22T17:50:51.881Z,7.82
2022-12-22T17:53:25.160Z,7.28
2022-12-22T17:56:09.330Z,8.27
2022-12-22T17:58:42.234Z,8.27
2022-12-22T18:01:23.672Z,7.83
2022-12-22T18:04:01.903Z,8.25
2022-12-22T18:06:35.583Z,8.40
2022-12-22T18:09:07.399Z,7.95
2022-12-22T18:11:45.590Z,8.55
2022-12-22T18:14:19.532Z,8.10
2022-12-22T18:16:50.415Z,8.55
2022-12-22T18:19:21.234Z,8.70
2022-12-22T18:21:49.059Z,7.68
2022-12-22T18:24:30.911Z,8.75
2022-12-22T18:26:59.446Z,7.88
2022-12-22T18:29:29.861Z,7.72
2022-12-22T18:32:00.301Z,7.88
2022-12-22T18:34:30.725Z,7.93
2022-12-22T18:36:58.353Z,7.85
2022-12-22T18:39:32.646Z,8.77
2022-12-22T18:42:03.561Z,8.50
2022-12-22T18:44:36.337Z,8.68
2022-12-22T18:47:11.653Z,9.20
2022-12-22T18:49:41.517Z,8.13
2022-12-22T18:52:23.621Z,8.38
2022-12-22T18:54:58.911Z,8.02
2022-12-22T18:57:32.746Z,8.20
2022-12-22T19:00:00.923Z,8.57
2022-12-22T19:02:34.800Z,8.32
2022-12-22T19:05:15.163Z,8.88
2022-12-22T19:07:51.936Z,8.52
2022-12-22T19:10:29.537Z,9.02
2022-12-22T19:13:04.679Z,8.40
2022-12-22T19:15:40.095Z,8.02
2022-12-22T19:18:22.819Z,8.50
2022-12-22T19:21:02.086Z,8.30
2022-12-22T19:23:34.378Z,8.50
2022-12-22T19:26:17.905Z,8.25
2022-12-22T19:28:51.844Z,8.10
2022-12-22T19:31:24.695Z,8.10
2022-12-22T19:34:00.135Z,8.73
2022-12-22T19:36:35.616Z,8.70
2022-12-22T19:39:08.632Z,8.73
2022-12-22T19:41:53.930Z,8.65
2022-12-22T19:44:33.279Z,8.63
2022-12-22T19:47:04.217Z,8.40
2022-12-22T19:49:34.224Z,7.38
2022-12-22T19:52:05.187Z,8.52
2022-12-22T19:54:35.030Z,8.15
2022-12-22T19:57:03.944Z,8.18
2022-12-22T19:59:40.152Z,7.97
2022-12-22T20:02:36.836Z,8.18
2022-12-22T20:05:22.748Z,7.68
2022-12-22T20:07:59.746Z,7.88
2022-12-22T20:10:35.571Z,8.20
2022-12-22T20:13:15.326Z,8.25
2022-12-22T20:15:45.901Z,8.30
2022-12-22T20:18:20.896Z,8.52
2022-12-22T20:21:06.634Z,8.07
2022-12-22T20:23:40.368Z,8.27
2022-12-22T20:28:50.314Z,8.10
2022-12-22T20:31:19.875Z,8.13
2022-12-22T20:33:54.960Z,8.45
2022-12-22T20:36:28.812Z,8.75
2022-12-22T20:39:00.131Z,8.50
2022-12-22T20:41:30.523Z,8.95
2022-12-22T20:44:06.018Z,8.23
2022-12-22T20:46:42.432Z,8.48
2022-12-22T20:49:15.281Z,8.68
2022-12-22T20:51:43.152Z,8.67
2022-12-22T20:54:16.792Z,8.57
2022-12-22T20:59:16.752Z,8.55
2022-12-22T21:01:46.333Z,8.90
2022-12-22T21:04:15.029Z,8.70
2022-12-22T21:06:52.347Z,8.48
2022-12-22T21:09:28.093Z,8.68
2022-12-22T21:11:58.156Z,8.35
2022-12-22T21:14:31.127Z,8.30
2022-12-22T21:17:01.414Z,8.70
2022-12-22T21:19:38.884Z,8.98
2022-12-22T21:22:14.477Z,8.73
2022-12-22T21:24:42.111Z,8.65
2022-12-22T21:27:20.076Z,8.00
2022-12-22T21:29:48.647Z,8.57
2022-12-22T21:32:21.877Z,8.35
2022-12-22T21:34:52.076Z,9.48
2022-12-22T21:37:20.065Z,8.43
2022-12-22T21:39:52.809Z,8.77
2022-12-22T21:42:23.568Z,8.87
2022-12-22T21:45:01.368Z,8.10
2022-12-22T21:47:34.077Z,8.32
2022-12-22T21:50:05.124Z,8.20
2022-12-22T21:52:35.652Z,8.20
2022-12-22T21:55:12.026Z,8.80
2022-12-22T21:57:39.455Z,8.70
2022-12-22T22:00:14.052Z,8.13
2022-12-22T22:02:44.094Z,8.38
2022-12-22T22:05:24.027Z,8.57
2022-12-22T22:07:56.128Z,8.15
2022-12-22T22:10:27.030Z,9.23
2022-12-22T22:12:59.920Z,7.95
2022-12-22T22:15:29.599Z,8.33
2022-12-22T22:18:06.467Z,8.05
2022-12-22T22:20:43.091Z,7.40
2022-12-22T22:23:15.003Z,8.25
2022-12-22T22:25:45.555Z,7.95
2022-12-22T22:28:13.339Z,8.02
2022-12-22T22:30:44.433Z,8.07
2022-12-22T22:33:20.205Z,8.32
2022-12-22T22:35:53.868Z,8.18
2022-12-22T22:40:58.081Z,8.57
2022-12-22T22:43:25.644Z,8.70
2022-12-22T22:45:57.936Z,8.73
2022-12-22T22:48:25.728Z,8.52
2022-12-22T22:50:58.735Z,8.93
2022-12-22T22:53:31.581Z,8.52
2022-12-22T22:56:05.610Z,8.27
2022-12-22T22:58:38.802Z,8.77
2022-12-22T23:01:11.794Z,8.10
2022-12-22T23:03:47.171Z,8.77
2022-12-22T23:06:20.021Z,8.70
2022-12-22T23:08:51.360Z,7.80
2022-12-22T23:11:21.517Z,8.38
2022-12-22T23:13:54.177Z,8.35
2022-12-22T23:16:32.357Z,8.23
2022-12-22T23:19:10.223Z,8.15
2022-12-22T23:21:38.638Z,8.40
2022-12-22T23:24:15.572Z,8.63
2022-12-22T23:26:45.561Z,7.80
2022-12-22T23:29:24.623Z,8.27
2022-12-22T23:31:56.819Z,8.60
2022-12-22T23:34:28.923Z,8.50
2022-12-22T23:36:59.350Z,8.50
2022-12-22T23:39:32.223Z,8.38
2022-12-22T23:42:07.915Z,7.80
2022-12-22T23:44:40.820Z,8.02
2022-12-22T23:47:16.528Z,8.07
2022-12-22T23:49:47.795Z,8.40
2022-12-22T23:52:18.173Z,8.73
2022-12-22T23:54:45.840Z,8.68
2022-12-22T23:57:21.014Z,7.93
2022-12-22T23:59:50.706Z,8.27
